Logo AVAMET
Benvolgut visitant, si us plau, ingressa Recuperar contrasenya

la Serra d′en Galceran el Collet

Dades diàries. Acumulats / Últims 30 dies disponibles

Data Temperatura (°C) Humitat rel. (%) Pressió rel. (hPa) Vent (km/h) Precipitació
Mínima Mitjana Màxima Amplitud
tèrmica
Mínima Mitjana Màxima Mínima Mitjana Màxima Predom. Mitjana Ràfega
màxima
Total
(mm)
Índex-n
Mínima Mitjana Màxima Mínima Mitjana Màxima n
0 a 1
P0 max
mm 5'
Dades mensuals acumulades fins l'últim dia disponible
09/2019 10,4 15,7 18,4 18,6 16,8 22,1 27,7 17,3   11,2 86,9 1,2
Dades anuals acumulades fins l'últim dia disponible
2019 -0,2 12,1 27,3 15,3 4,4 19,0 35,2 35,4   11,5 157,7 20,1
Últims 30 dies disponibles
17-09-2019 18,4     21,8     25,0 6,6 SSW 4,3 41,8 0,0
16-09-2019 17,1     19,8     24,4 7,3 ENE 6,4 37,0 0,0
15-09-2019 16,3     18,7     21,8 5,5 ENE 8,7 41,8 0,0
14-09-2019 17,0     18,8     21,3 4,3 ENE 8,9 56,3 0,0
13-09-2019 14,1     17,0     18,7 4,6 ENE 12,6 72,4 1,2
12-09-2019 15,1     18,4     22,1 7,0 NE 9,0 46,7 0,0
11-09-2019 10,4     13,8     16,8 6,4 NNE 26,6 86,9 0,0
10-09-2019 10,9     14,7     19,7 8,8 NNE 35,7 85,3 0,0
09-09-2019 16,7     18,6     22,6 5,9 SSW 4,7 25,7 0,0
08-09-2019 15,8     18,3     21,2 5,4 SSW 6,1 27,4 0,0
07-09-2019 15,9     17,4     20,3 4,4 SSW 5,5 24,1 0,0
06-09-2019 13,4     16,9     21,2 7,8 NNE 13,0 54,7 0,0
05-09-2019 14,4     18,6     23,4 9,0 NNE 26,2 74,0 0,0
04-09-2019 18,4     20,8     24,2 5,8 SSW 5,8 43,5 0,0
03-09-2019 18,1     19,8     23,3 5,2 SSW 5,3 25,7 0,0
02-09-2019 15,8     19,0     22,6 6,8 SSW 6,6 51,5 0,0
01-09-2019 18,4     23,4     27,7 9,3 SSW 5,8 54,7 0,0
30-08-2019 21,1     23,6     27,3 6,2 SSW 5,1 27,4 0,0
29-08-2019 21,1     23,1     26,3 5,2 SW 6,1 25,7 0,0
28-08-2019 17,1     21,1     24,8 7,7 NE 5,0 27,4 0,0
27-08-2019 14,6     18,9     22,8 8,2 ENE 6,6 72,4 0,2
26-08-2019 18,5     20,6     23,5 5,0 SSW 4,8 24,1 0,0
25-08-2019 19,4     22,5     26,3 6,9 SSW 5,3 30,6 0,0
24-08-2019 19,0     22,3     26,3 7,3 SSW 2,7 27,4 0,0
23-08-2019 19,7     22,4     26,4 6,7 NE 3,4 25,7 0,0
22-08-2019 17,8     21,1     24,4 6,6 ENE 6,0 27,4 0,0
21-08-2019 16,4     18,2     20,5 4,1 SW 6,4 49,9 0,0
20-08-2019 18,3     19,2     20,7 2,4 NE 9,7 49,9 0,0
19-08-2019 19,2     21,9     26,1 6,9 ENE 5,1 32,2 0,0
18-08-2019 19,0     23,8     29,0 10,0 SSW 4,7 27,4 0,0
Últims 13 mesos disponibles
07/2019 16,1 20,2 25,3 23,6 22,3 27,3 31,5 15,4 SSW 7,1 93,3 8,2
06/2019 8,4 15,9 26,2 19,6 14,8 23,4 35,2 26,8 SSW 6,9 69,2
05/2019 6,3 10,8 16,4 14,3 11,7 18,2 23,6 17,3 NNE 12,6 95,0
04/2019 2,7 7,7 13,1 10,6 10,4 14,2 21,6 18,9 NNE 12,8 74,0
03/2019 3,3 8,3 15,2 11,7 10,7 15,9 22,1 18,8 NNE 12,6 120,7
02/2019 0,9 6,5 12,9 9,6 4,4 13,1 21,9 21,0 SSW 11,6 157,7
12/2017 -0,4 5,5 12,2 8,0 3,2 11,2 18,8 19,2 18,9 132,0 0,0
11/2017 1,7 8,0 15,2 10,7 6,8 14,0 19,7 18,0 19,6 115,9 1,2
10/2017 10,6 14,0 17,7 16,6 14,1 20,3 26,4 15,8 7,5 69,2 11,8
09/2017 9,4 14,7 18,3 17,7 16,3 21,7 28,2 18,8 7,9 95,0 19,2
08/2017 11,2 18,6 25,4 21,9 20,3 25,4 31,8 20,6 6,8 70,8 22,6
07/2017 11,3 18,5 22,2 21,8 20,1 25,6 29,2 17,9 7,5 77,2 0,0
06/2017 10,8 18,0 23,0 21,3 17,1 24,8 30,3 19,5 6,5 69,2 16,3
Tots els anys disponibles
2017 -3,7 11,5 25,4 14,4 2,3 17,9 31,8 35,5 10,5 146,5 262,9
2016 -0,4 11,4 26,8 14,2 5,0 17,3 33,7 34,1 N 9,5 115,9 279,2
2015 0,9 13,9 26,5 16,7 6,4 19,8 34,4 33,5 N 7,6 91,7 316,7
Temperatura (°C)
Humitat relativa (%)
Velocitat del vent i ràfega màxima (km/h)
Direcció del vent (°)
Pressió (hPa)
Precipitació (mm)
Nota sobre les dades: s'avisa a l'usuari de la provisionalitat i no oficialitat d'aquestes dades
Logo AVAMET blanc
Web allotjada a Sollutia
Llicència de Creative CommonsLa web d'AVAMET i els seus continguts estan subjectes a una llicència de
Reconeixement - No Comercial - Compartir igual
Properes estacions: Altea - Club Nàutic d'Altea (Soci),    - - - - -      Últimes estacions: Llíria - Bodegas del Campo (Soci), La Pobla Tornesa (Soci), Quartell (Soci), Alzira - Est (Soci/Inforatge), San Miguel de las Salinas (MeteOrihuela), Segorbe (Inforatge), Alcalà de Xivert - Alcossebre (Inforatge), Moixent - la Foia (Soci), Callosa d'en Sarrià - Centre (Soci) - - -